Buffalo, WY

6:32 AM MDT on April 24, 2017 (GMT -0600)
Buffalo | | Change Station
Active Advisory: Winter Weather Advisory

Elev 4708 ft 44.34 °N, 106.70 °W | Updated 22 seconds ago

Clear
Clear
38.1 °F
Feels Like 38 °F
N
1.1
Wind Variable Wind from SSW
Gusts 2.5 mph

Today
High -- | Low -- °F
--% Chance of Precip.
Yesterday
High -- | Low -- °F
Precip. -- in
Pressure 29.59 in
Visibility 10.0 miles
Clouds Clear
Windchill 38 °F
Dew Point 38 °F
Humidity 99%
Rainfall 0.00 in
Snow Depth Not available.
6:07 AM 8:02 PM
Waning Crescent, 6% visible
METAR KBYG 241153Z AUTO 25006KT 10SM CLR 04/01 A2968 RMK AO2 SLP020 T00440011 10083 20022 51003
Pressure 29.59 in
Visibility 10.0 miles
Clouds Clear
Windchill 38 °F
Dew Point 38 °F
Humidity 99%
Rainfall 0.00 in
Snow Depth Not available.
6:07 AM 8:02 PM
Waning Crescent, 6% visible
METAR KBYG 241153Z AUTO 25006KT 10SM CLR 04/01 A2968 RMK AO2 SLP020 T00440011 10083 20022 51003

Get Your Daily Forecast Email!

Thanks for signing up!

Be on the lookout for a verification email in your inbox.

You'll start receiving severe weather alerts in your inbox..

×

10-Day Weather Forecast

Almanac

Astronomy

Apr. 24, 2017 Rise Set
Actual Time
Civil Twilight
Nautical Twilight
Astronomical Twilight
Moon
Length of Visible Light
Length of Day
Tomorrow will be .
, % of the Moon is Illuminated

Today's Extremes

State Highs State Lows

Community

WunderPhotos

WunderBlog® & News

Nearby

Air Quality

  Air Quality AQ Index Pollutant
Not available.

Snow Depth

Station Depth Elevation

Earthquake Activity

City Distance Mag. Time & Date
Minimum magnitude displayed is 2.5.

Coastal Water Temperatures

Place Temperature

Stations

Nearby Weather Stations

Station Location Temp. Windchill Dew Point Humidity Wind Precip. Elev Updated Type
                   

Watches & Warnings

Winter Weather Advisory
Issued: 2:19 AM MDT Apr. 24, 2017 – National Weather Service

... Winter Weather Advisory in effect from midnight tonight to
6 PM MDT Tuesday...

The National Weather Service in Riverton has issued a Winter
Weather Advisory for snow and blowing snow, which is in effect
from midnight tonight to 6 PM MDT Tuesday.

* Timing... rain will change to snow around midnight tonight and
continue on Tuesday. The heaviest snow is expected late tonight
and Tuesday morning.

* Total snowfall... 3 to 5 inches.

* Main impact... highways will become slick and snow covered,
including South Pass. Visibility could be reduced to under one
half mile at times in snow and blowing snow.

Precautionary/preparedness actions...

A Winter Weather Advisory for snow and blowing snow means periods
of snow and blowing snow will cause primarily travel
difficulties. Be prepared for snow covered and slick roads with
limited visibilities. Slow down, and allow extra time to reach
your destination. Check the latest Road conditions at wyoroad.Info
or by dialing 5 1 1.